createdAt,value
2018-03-24T00:00:09.385Z,80.30
2018-03-24T00:01:09.337Z,80.58
2018-03-24T00:02:09.315Z,81.06
2018-03-24T00:03:09.338Z,80.77
2018-03-24T00:04:09.269Z,80.87
2018-03-24T00:05:09.263Z,80.96
2018-03-24T00:06:09.262Z,80.87
2018-03-24T00:07:09.218Z,80.87
2018-03-24T00:08:09.191Z,81.63
2018-03-24T00:09:09.177Z,81.25
2018-03-24T00:10:09.162Z,81.44
2018-03-24T00:11:09.143Z,81.44
2018-03-24T00:12:09.113Z,81.44
2018-03-24T00:13:09.099Z,81.73
2018-03-24T00:14:09.101Z,81.44
2018-03-24T00:15:09.058Z,81.82
2018-03-24T00:16:09.036Z,81.92
2018-03-24T00:17:09.024Z,81.92
2018-03-24T00:18:09.002Z,81.82
2018-03-24T00:19:08.978Z,81.78
2018-03-24T00:20:08.974Z,81.73
2018-03-24T00:21:08.975Z,81.92
2018-03-24T00:22:08.928Z,82.07
2018-03-24T00:23:08.904Z,81.97
2018-03-24T00:24:08.883Z,81.97
2018-03-24T00:25:08.873Z,82.07
2018-03-24T00:26:08.890Z,82.16
2018-03-24T00:27:08.821Z,82.26
2018-03-24T00:28:08.799Z,82.92
2018-03-24T00:29:08.791Z,82.54
2018-03-24T00:30:08.775Z,82.64
2018-03-24T00:31:08.760Z,82.92
2018-03-24T00:32:08.728Z,83.11
2018-03-24T00:33:08.701Z,83.11
2018-03-24T00:34:08.710Z,82.73
2018-03-24T00:35:08.677Z,82.73
2018-03-24T00:36:08.652Z,82.92
2018-03-24T00:37:08.653Z,82.54
2018-03-24T00:38:08.688Z,82.92
2018-03-24T00:39:08.594Z,83.01
2018-03-24T00:40:08.561Z,83.49
2018-03-24T00:41:08.556Z,83.39
2018-03-24T00:42:08.526Z,83.39
2018-03-24T00:43:08.504Z,83.20
2018-03-24T00:44:08.485Z,83.68
2018-03-24T00:45:08.475Z,83.68
2018-03-24T00:46:08.452Z,83.59
2018-03-24T00:47:08.434Z,83.68
2018-03-24T00:48:08.421Z,83.30
2018-03-24T00:49:08.400Z,83.49
2018-03-24T00:50:08.369Z,83.30
2018-03-24T00:52:08.325Z,83.39
2018-03-24T00:53:08.307Z,83.30
2018-03-24T00:54:08.341Z,83.87
2018-03-24T00:55:08.270Z,83.87
2018-03-24T00:56:08.259Z,84.06
2018-03-24T00:57:08.242Z,84.16
2018-03-24T00:58:08.209Z,84.16
2018-03-24T00:59:08.197Z,84.25
2018-03-24T01:00:08.163Z,84.44
2018-03-24T01:01:08.166Z,84.82
2018-03-24T01:02:08.135Z,84.21
2018-03-24T01:03:08.108Z,84.53
2018-03-24T01:04:08.090Z,84.63
2018-03-24T01:05:08.066Z,84.97
2018-03-24T01:06:08.062Z,84.30
2018-03-24T01:07:08.037Z,84.87
2018-03-24T01:08:08.008Z,84.40
2018-03-24T01:09:07.985Z,84.97
2018-03-24T01:10:07.966Z,84.40
2018-03-24T01:11:07.957Z,84.59
2018-03-24T01:12:07.931Z,84.40
2018-03-24T01:13:07.914Z,84.49
2018-03-24T01:14:07.884Z,84.59
2018-03-24T01:15:07.884Z,84.40
2018-03-24T01:16:07.856Z,84.49
2018-03-24T01:17:07.826Z,84.59
2018-03-24T01:18:07.809Z,84.49
2018-03-24T01:19:07.809Z,85.25
2018-03-24T01:20:07.785Z,85.16
2018-03-24T01:21:07.752Z,85.25
2018-03-24T01:22:07.749Z,85.35
2018-03-24T01:23:07.702Z,85.16
2018-03-24T01:24:07.693Z,84.97
2018-03-24T01:25:07.661Z,85.82
2018-03-24T01:26:07.645Z,85.72
2018-03-24T01:27:07.627Z,85.63
2018-03-24T01:28:07.610Z,85.72
2018-03-24T01:29:07.595Z,85.16
2018-03-24T01:30:07.561Z,85.16
2018-03-24T01:31:07.545Z,85.06
2018-03-24T01:32:07.525Z,85.25
2018-03-24T01:33:07.500Z,85.06
2018-03-24T01:34:07.490Z,85.25
2018-03-24T01:35:07.478Z,85.06
2018-03-24T01:36:07.452Z,85.16
2018-03-24T01:37:07.421Z,85.21
2018-03-24T01:38:07.415Z,84.59
2018-03-24T01:39:07.408Z,84.40
2018-03-24T01:40:07.364Z,84.36
2018-03-24T01:41:07.345Z,84.55
2018-03-24T01:42:07.329Z,84.45
2018-03-24T01:43:07.307Z,84.55
2018-03-24T01:44:07.284Z,84.92
2018-03-24T01:45:07.262Z,84.55
2018-03-24T01:46:07.241Z,84.45
2018-03-24T01:47:07.219Z,84.26
2018-03-24T01:48:07.197Z,84.36
2018-03-24T01:49:07.173Z,84.74
2018-03-24T01:50:07.160Z,84.36
2018-03-24T01:51:07.148Z,84.55
2018-03-24T01:52:07.116Z,84.55
2018-03-24T01:53:07.089Z,84.36
2018-03-24T01:54:07.078Z,84.83
2018-03-24T01:55:07.056Z,84.55
2018-03-24T01:56:07.077Z,84.45
2018-03-24T01:57:07.011Z,84.92
2018-03-24T01:58:07.003Z,84.83
2018-03-24T01:59:06.999Z,84.45
2018-03-24T02:00:06.948Z,84.17
2018-03-24T02:01:06.939Z,84.55
2018-03-24T02:02:06.922Z,85.11
2018-03-24T02:03:06.902Z,84.83
2018-03-24T02:04:06.873Z,85.02
2018-03-24T02:05:06.880Z,85.02
2018-03-24T02:06:06.841Z,84.83
2018-03-24T02:07:06.804Z,85.30
2018-03-24T02:08:06.784Z,85.11
2018-03-24T02:09:06.760Z,84.83
2018-03-24T02:10:06.742Z,84.74
2018-03-24T02:11:06.722Z,84.55
2018-03-24T02:12:06.710Z,84.45
2018-03-24T02:13:06.676Z,84.64
2018-03-24T02:14:06.659Z,85.11
2018-03-24T02:15:06.643Z,85.21
2018-03-24T02:16:06.624Z,85.02
2018-03-24T02:17:06.602Z,84.92
2018-03-24T02:18:06.584Z,85.21
2018-03-24T02:19:06.557Z,85.21
2018-03-24T02:20:06.532Z,85.97
2018-03-24T02:21:06.523Z,85.97
2018-03-24T02:22:06.498Z,85.87
2018-03-24T02:23:06.500Z,86.16
2018-03-24T02:24:06.454Z,86.07
2018-03-24T02:25:06.474Z,86.72
2018-03-24T02:26:06.418Z,86.82
2018-03-24T02:27:06.393Z,86.35
2018-03-24T02:28:06.392Z,86.44
2018-03-24T02:29:06.346Z,87.63
2018-03-24T02:30:06.335Z,87.06
2018-03-24T02:31:06.369Z,87.39
2018-03-24T02:32:06.289Z,87.11
2018-03-24T02:33:06.262Z,87.06
2018-03-24T02:34:06.249Z,87.54
2018-03-24T02:35:06.232Z,87.73
2018-03-24T02:36:06.205Z,87.35
2018-03-24T02:37:06.185Z,87.54
2018-03-24T02:38:06.158Z,88.01
2018-03-24T02:39:06.141Z,88.20
2018-03-24T02:40:06.120Z,88.10
2018-03-24T02:41:06.141Z,88.39
2018-03-24T02:42:06.122Z,88.29
2018-03-24T02:43:06.058Z,88.39
2018-03-24T02:44:06.032Z,89.15
2018-03-24T02:45:06.010Z,88.68
2018-03-24T02:46:05.998Z,88.87
2018-03-24T02:47:05.989Z,88.96
2018-03-24T02:48:05.954Z,88.48
2018-03-24T02:49:05.934Z,88.58
2018-03-24T02:50:05.909Z,88.58
2018-03-24T02:51:05.931Z,89.25
2018-03-24T02:52:05.864Z,89.34
2018-03-24T02:53:05.861Z,90.00
2018-03-24T02:54:05.868Z,89.72
2018-03-24T02:55:05.807Z,89.91
2018-03-24T02:56:05.824Z,90.10
2018-03-24T02:57:05.803Z,89.91
2018-03-24T02:58:05.741Z,90.48
2018-03-24T02:59:05.721Z,90.76
2018-03-24T03:00:05.701Z,90.95
2018-03-24T03:01:05.683Z,90.95
2018-03-24T03:02:05.661Z,91.24
2018-03-24T03:03:05.630Z,91.24
2018-03-24T03:04:05.621Z,91.14
2018-03-24T03:05:05.596Z,90.86
2018-03-24T03:06:05.568Z,90.86
2018-03-24T03:07:05.568Z,91.14
2018-03-24T03:08:05.525Z,91.05
2018-03-24T03:09:05.515Z,91.14
2018-03-24T03:10:05.486Z,91.05
2018-03-24T03:11:05.482Z,91.42
2018-03-24T03:12:05.443Z,91.42
2018-03-24T03:13:05.439Z,91.61
2018-03-24T03:14:05.397Z,91.99
2018-03-24T03:15:05.382Z,91.90
2018-03-24T03:16:05.359Z,91.99
2018-03-24T03:17:05.339Z,91.61
2018-03-24T03:18:05.314Z,91.99
2018-03-24T03:19:05.315Z,91.71
2018-03-24T03:20:05.277Z,91.80
2018-03-24T03:21:05.254Z,92.09
2018-03-24T03:22:05.240Z,91.99
2018-03-24T03:23:05.208Z,92.09
2018-03-24T03:24:05.186Z,91.85
2018-03-24T03:25:05.171Z,92.33
2018-03-24T03:26:05.147Z,92.42
2018-03-24T03:27:05.122Z,92.52
2018-03-24T03:28:05.142Z,92.52
2018-03-24T03:29:05.078Z,92.33
2018-03-24T03:30:05.060Z,92.90
2018-03-24T03:31:05.037Z,92.80
2018-03-24T03:32:05.013Z,93.18
2018-03-24T03:33:05.030Z,92.90
2018-03-24T03:34:04.974Z,93.27
2018-03-24T03:35:04.959Z,92.90
2018-03-24T03:36:04.935Z,92.99
2018-03-24T03:37:04.906Z,92.99
2018-03-24T03:38:04.886Z,92.61
2018-03-24T03:39:04.875Z,92.90
2018-03-24T03:40:04.857Z,92.85
2018-03-24T03:41:04.827Z,92.71
2018-03-24T03:42:04.807Z,92.85
2018-03-24T03:43:04.783Z,92.66
2018-03-24T03:44:04.768Z,92.14
2018-03-24T03:45:04.739Z,92.80
2018-03-24T03:46:04.718Z,93.18
2018-03-24T03:47:04.726Z,92.99
2018-03-24T03:48:04.700Z,92.90
2018-03-24T03:49:04.652Z,92.90
2018-03-24T03:50:04.662Z,92.71
2018-03-24T03:51:04.612Z,93.23
2018-03-24T03:52:04.590Z,93.18
2018-03-24T03:53:04.568Z,93.08
2018-03-24T03:54:04.552Z,93.08
2018-03-24T03:55:04.522Z,92.94
2018-03-24T03:56:04.502Z,92.85
2018-03-24T03:57:04.510Z,93.13
2018-03-24T03:58:04.470Z,92.94
2018-03-24T03:59:04.436Z,92.28
2018-03-24T04:00:04.418Z,92.94
2018-03-24T04:01:04.400Z,92.80
2018-03-24T04:02:04.374Z,92.80
2018-03-24T04:03:04.362Z,92.80
2018-03-24T04:04:04.342Z,93.08
2018-03-24T04:05:04.330Z,93.08
2018-03-24T04:06:04.353Z,92.90
2018-03-24T04:07:04.268Z,92.90
2018-03-24T04:08:04.261Z,92.90
2018-03-24T04:09:04.228Z,93.18
2018-03-24T04:10:04.199Z,92.90
2018-03-24T04:11:04.188Z,92.61
2018-03-24T04:12:04.197Z,92.99
2018-03-24T04:13:04.149Z,92.61
2018-03-24T04:14:04.113Z,93.37
2018-03-24T04:15:04.116Z,92.80
2018-03-24T04:16:04.104Z,93.08
2018-03-24T04:17:04.048Z,92.99
2018-03-24T04:18:04.026Z,92.99
2018-03-24T04:19:04.009Z,92.99
2018-03-24T04:20:03.989Z,92.80
2018-03-24T04:21:03.961Z,93.37
2018-03-24T04:22:03.946Z,93.37
2018-03-24T04:23:03.926Z,93.46
2018-03-24T04:24:03.899Z,93.27
2018-03-24T04:25:03.877Z,93.56
2018-03-24T04:26:03.873Z,93.56
2018-03-24T04:27:03.865Z,93.46
2018-03-24T04:28:03.844Z,93.75
2018-03-24T04:29:03.817Z,93.37
2018-03-24T04:30:03.776Z,93.84
2018-03-24T04:31:03.762Z,93.46
2018-03-24T04:32:03.731Z,93.46
2018-03-24T04:33:03.706Z,93.37
2018-03-24T04:34:03.689Z,93.75
2018-03-24T04:35:03.671Z,93.84
2018-03-24T04:36:03.653Z,93.46
2018-03-24T04:37:03.629Z,93.75
2018-03-24T04:38:03.614Z,93.84
2018-03-24T04:39:03.573Z,93.75
2018-03-24T04:40:03.562Z,93.37
2018-03-24T04:41:03.539Z,93.75
2018-03-24T04:42:03.509Z,93.75
2018-03-24T04:43:03.496Z,93.56
2018-03-24T04:44:03.472Z,93.56
2018-03-24T04:45:03.487Z,93.56
2018-03-24T04:46:03.425Z,93.56
2018-03-24T04:47:03.406Z,93.46
2018-03-24T04:48:03.387Z,93.75
2018-03-24T04:49:03.393Z,94.13
2018-03-24T04:50:03.338Z,94.23
2018-03-24T04:51:03.363Z,94.04
2018-03-24T04:52:03.296Z,94.04
2018-03-24T04:53:03.272Z,93.94
2018-03-24T04:54:03.257Z,94.79
2018-03-24T04:55:03.238Z,94.60
2018-03-24T04:56:03.205Z,94.51
2018-03-24T04:57:03.189Z,94.51
2018-03-24T04:58:03.172Z,94.42
2018-03-24T04:59:03.160Z,94.70
2018-03-24T05:00:03.123Z,94.13
2018-03-24T05:01:03.097Z,94.79
2018-03-24T05:02:03.101Z,94.32
2018-03-24T05:03:03.098Z,94.42
2018-03-24T05:04:03.041Z,94.42
2018-03-24T05:05:03.018Z,94.79
2018-03-24T05:06:03.004Z,94.79
2018-03-24T05:07:02.971Z,95.17
2018-03-24T05:08:02.944Z,94.89
2018-03-24T05:09:02.925Z,94.98
2018-03-24T05:10:02.921Z,94.79
2018-03-24T05:11:02.890Z,94.89
2018-03-24T05:12:02.865Z,94.79
2018-03-24T05:13:02.835Z,94.79
2018-03-24T05:14:02.817Z,94.89
2018-03-24T05:15:02.802Z,94.60
2018-03-24T05:16:02.780Z,94.79
2018-03-24T05:17:02.770Z,94.70
2018-03-24T05:18:02.730Z,94.70
2018-03-24T05:19:02.732Z,94.89
2018-03-24T05:20:02.699Z,94.79
2018-03-24T05:21:02.702Z,94.32
2018-03-24T05:22:02.658Z,94.89
2018-03-24T05:23:02.625Z,94.42
2018-03-24T05:24:02.597Z,94.70
2018-03-24T05:25:02.587Z,94.79
2018-03-24T05:26:02.552Z,94.70
2018-03-24T05:27:02.534Z,94.89
2018-03-24T05:28:02.532Z,94.51
2018-03-24T05:29:02.492Z,94.32
2018-03-24T05:30:02.469Z,94.60
2018-03-24T05:31:02.453Z,94.51
2018-03-24T05:32:02.439Z,93.94
2018-03-24T05:33:02.400Z,94.13
2018-03-24T05:34:02.381Z,94.32
2018-03-24T05:35:02.377Z,94.23
2018-03-24T05:36:02.340Z,93.18
2018-03-24T05:37:02.323Z,93.37
2018-03-24T05:38:02.301Z,93.56
2018-03-24T05:39:02.313Z,93.56
2018-03-24T05:40:02.252Z,93.65
2018-03-24T05:41:02.252Z,93.94
2018-03-24T05:42:02.211Z,93.08
2018-03-24T05:43:02.191Z,93.46
2018-03-24T05:44:02.204Z,93.56
2018-03-24T05:45:02.155Z,92.99
2018-03-24T05:46:02.148Z,93.46
2018-03-24T05:47:02.115Z,92.99
2018-03-24T05:48:02.095Z,92.99
2018-03-24T05:49:02.088Z,92.99
2018-03-24T05:50:02.050Z,93.18
2018-03-24T05:51:02.014Z,92.71
2018-03-24T05:52:01.994Z,92.42
2018-03-24T05:53:01.972Z,92.61
2018-03-24T05:54:01.952Z,92.33
2018-03-24T05:55:02.047Z,92.61
2018-03-24T05:56:01.930Z,92.14
2018-03-24T05:57:01.897Z,92.47
2018-03-24T05:58:01.873Z,91.52
2018-03-24T05:59:01.839Z,91.80
2018-03-24T06:00:01.833Z,91.24
2018-03-24T06:01:01.827Z,90.95
2018-03-24T06:02:01.780Z,90.76
2018-03-24T06:03:01.750Z,90.67
2018-03-24T06:04:01.758Z,90.57
2018-03-24T06:05:01.724Z,90.48
2018-03-24T06:06:01.690Z,90.48
2018-03-24T06:07:01.676Z,89.91
2018-03-24T06:08:01.642Z,89.53
2018-03-24T06:09:01.634Z,89.91
2018-03-24T06:10:01.655Z,89.34
2018-03-24T06:11:01.603Z,88.48
2018-03-24T06:12:01.553Z,88.24
2018-03-24T06:13:01.620Z,88.39
2018-03-24T06:14:01.519Z,88.53
2018-03-24T06:15:01.490Z,89.00
2018-03-24T06:16:01.481Z,88.91
2018-03-24T06:17:01.456Z,88.53
2018-03-24T06:18:01.436Z,88.81
2018-03-24T06:19:01.416Z,88.91
2018-03-24T06:20:01.399Z,88.81
2018-03-24T06:21:01.371Z,88.62
2018-03-24T06:22:01.346Z,88.43
2018-03-24T06:23:01.337Z,88.43
2018-03-24T06:24:01.314Z,88.72
2018-03-24T06:25:01.283Z,88.43
2018-03-24T06:26:01.275Z,89.10
2018-03-24T06:27:01.236Z,88.91
2018-03-24T06:28:01.220Z,88.39
2018-03-24T06:29:01.203Z,88.96
2018-03-24T06:30:01.177Z,88.77
2018-03-24T06:31:01.175Z,88.77
2018-03-24T06:32:01.144Z,89.06
2018-03-24T06:33:01.140Z,89.15
2018-03-24T06:34:01.121Z,88.87
2018-03-24T06:35:01.073Z,89.34
2018-03-24T06:36:01.061Z,89.25
2018-03-24T06:37:01.049Z,89.29
2018-03-24T06:38:01.022Z,89.20
2018-03-24T06:39:00.999Z,88.43
2018-03-24T06:40:00.973Z,88.91
2018-03-24T06:41:00.983Z,87.87
2018-03-24T06:42:00.930Z,88.43
2018-03-24T06:43:00.911Z,88.91
2018-03-24T06:44:00.900Z,88.43
2018-03-24T06:45:00.893Z,88.43
2018-03-24T06:46:00.843Z,88.34
2018-03-24T06:47:00.872Z,88.34
2018-03-24T06:48:00.809Z,88.24
2018-03-24T06:49:00.791Z,88.81
2018-03-24T06:50:00.792Z,88.62
2018-03-24T06:51:00.743Z,88.15
2018-03-24T06:52:00.720Z,88.06
2018-03-24T06:53:00.705Z,88.15
2018-03-24T06:54:00.699Z,88.34
2018-03-24T06:55:00.689Z,88.15
2018-03-24T06:56:00.634Z,88.15
2018-03-24T06:57:00.641Z,88.24
2018-03-24T06:58:00.613Z,88.24
2018-03-24T06:59:00.587Z,88.81
2018-03-24T07:00:00.547Z,89.00
2018-03-24T07:01:00.535Z,88.34
2018-03-24T07:02:00.542Z,88.53
2018-03-24T07:03:00.493Z,88.53
2018-03-24T07:04:00.485Z,88.62
2018-03-24T07:05:00.454Z,89.00
2018-03-24T07:06:00.434Z,88.53
2018-03-24T07:07:00.406Z,88.81
2018-03-24T07:08:00.386Z,88.81
2018-03-24T07:09:00.374Z,88.53
2018-03-24T07:10:00.373Z,88.06
2018-03-24T07:11:00.325Z,88.06
2018-03-24T07:12:00.328Z,88.81
2018-03-24T07:13:00.284Z,88.72
2018-03-24T07:14:00.276Z,88.81
2018-03-24T07:15:00.250Z,88.91
2018-03-24T07:16:00.260Z,88.62
2018-03-24T07:17:00.202Z,88.53
2018-03-24T07:18:00.214Z,88.62
2018-03-24T07:19:00.170Z,89.20
2018-03-24T07:20:00.157Z,89.00
2018-03-24T07:21:00.140Z,88.53
2018-03-24T07:22:00.137Z,88.24
2018-03-24T07:23:00.082Z,88.15
2018-03-24T07:24:00.055Z,88.53
2018-03-24T07:25:00.046Z,87.87
2018-03-24T07:26:00.030Z,88.15
2018-03-24T07:27:00.000Z,87.68
2018-03-24T07:27:59.979Z,87.62
2018-03-24T07:29:00.039Z,87.62
2018-03-24T07:29:59.948Z,87.91
2018-03-24T07:30:59.907Z,87.62
2018-03-24T07:31:59.902Z,87.53
2018-03-24T07:32:59.874Z,87.43
2018-03-24T07:33:59.877Z,87.24
2018-03-24T07:34:59.840Z,86.68
2018-03-24T07:35:59.812Z,87.15
2018-03-24T07:36:59.802Z,87.34
2018-03-24T07:37:59.775Z,87.15
2018-03-24T07:38:59.773Z,86.87
2018-03-24T07:39:59.734Z,86.68
2018-03-24T07:40:59.781Z,86.58
2018-03-24T07:41:59.716Z,86.49
2018-03-24T07:42:59.668Z,85.82
2018-03-24T07:43:59.639Z,86.11
2018-03-24T07:44:59.631Z,85.82
2018-03-24T07:45:59.615Z,85.35
2018-03-24T07:46:59.606Z,85.63
2018-03-24T07:47:59.558Z,85.25
2018-03-24T07:48:59.573Z,85.44
2018-03-24T07:49:59.516Z,85.44
2018-03-24T07:50:59.502Z,85.63
2018-03-24T07:51:59.484Z,85.44
2018-03-24T07:52:59.459Z,85.06
2018-03-24T07:53:59.466Z,85.49
2018-03-24T07:54:59.439Z,85.11
2018-03-24T07:55:59.432Z,84.91
2018-03-24T07:56:59.387Z,84.63
2018-03-24T07:57:59.375Z,84.63
2018-03-24T07:58:59.358Z,84.34
2018-03-24T07:59:59.354Z,84.16
2018-03-24T08:00:59.291Z,84.63
2018-03-24T08:01:59.314Z,84.72
2018-03-24T08:02:59.336Z,84.06
2018-03-24T08:03:59.253Z,83.59
2018-03-24T08:04:59.238Z,83.87
2018-03-24T08:05:59.191Z,83.68
2018-03-24T08:06:59.180Z,83.30
2018-03-24T08:07:59.171Z,83.11
2018-03-24T08:08:59.164Z,82.92
2018-03-24T08:09:59.121Z,82.45
2018-03-24T08:10:59.099Z,81.68
2018-03-24T08:11:59.087Z,81.21
2018-03-24T08:12:59.066Z,81.21
2018-03-24T08:13:59.075Z,81.35
2018-03-24T08:14:59.034Z,80.87
2018-03-24T08:15:59.004Z,80.30
2018-03-24T08:16:58.999Z,80.40
2018-03-24T08:17:58.978Z,81.35
2018-03-24T08:18:58.959Z,81.35
2018-03-24T08:19:58.965Z,80.68
2018-03-24T08:20:58.906Z,80.21
2018-03-24T08:21:58.869Z,79.73
2018-03-24T08:22:58.869Z,80.02
2018-03-24T08:23:58.870Z,79.83
2018-03-24T08:24:58.827Z,79.54
2018-03-24T08:25:58.794Z,78.97
2018-03-24T08:26:58.814Z,79.16
2018-03-24T08:27:58.759Z,78.91
2018-03-24T08:28:58.741Z,78.82
2018-03-24T08:29:58.735Z,78.53
2018-03-24T08:30:58.705Z,78.53
2018-03-24T08:31:58.680Z,77.87
2018-03-24T08:32:58.659Z,77.87
2018-03-24T08:33:58.644Z,77.77
2018-03-24T08:34:58.627Z,77.97
2018-03-24T08:35:58.607Z,77.68
2018-03-24T08:36:58.591Z,77.39
2018-03-24T08:37:58.565Z,77.58
2018-03-24T08:38:58.546Z,77.11
2018-03-24T08:39:58.538Z,76.92
2018-03-24T08:40:58.510Z,77.01
2018-03-24T08:41:58.495Z,76.54
2018-03-24T08:42:58.468Z,77.11
2018-03-24T08:43:58.451Z,77.20
2018-03-24T08:44:58.466Z,76.44
2018-03-24T08:45:58.404Z,76.92
2018-03-24T08:46:58.448Z,76.63
2018-03-24T08:47:58.402Z,76.44
2018-03-24T08:48:58.360Z,76.73
2018-03-24T08:49:58.334Z,76.92
2018-03-24T08:50:58.326Z,76.35
2018-03-24T08:51:58.311Z,76.16
2018-03-24T08:52:58.273Z,75.49
2018-03-24T08:53:58.260Z,75.53
2018-03-24T08:54:58.242Z,75.62
2018-03-24T08:55:58.233Z,75.72
2018-03-24T08:56:58.233Z,75.24
2018-03-24T08:57:58.197Z,74.96
2018-03-24T08:58:58.164Z,74.77
2018-03-24T08:59:58.141Z,75.53
2018-03-24T09:00:58.124Z,75.91
2018-03-24T09:01:58.105Z,75.72
2018-03-24T09:02:58.089Z,74.96
2018-03-24T09:03:58.086Z,75.15
2018-03-24T09:04:58.049Z,74.01
2018-03-24T09:05:58.031Z,73.91
2018-03-24T09:06:58.016Z,73.91
2018-03-24T09:07:58.007Z,73.91
2018-03-24T09:08:57.971Z,74.24
2018-03-24T09:09:57.953Z,73.95
2018-03-24T09:10:57.945Z,73.28
2018-03-24T09:11:57.919Z,73.10
2018-03-24T09:12:57.891Z,73.38
2018-03-24T09:13:57.882Z,73.10
2018-03-24T09:14:57.885Z,73.38
2018-03-24T09:15:57.906Z,72.81
2018-03-24T09:16:57.817Z,72.71
2018-03-24T09:17:57.815Z,71.86
2018-03-24T09:18:57.791Z,71.61
2018-03-24T09:19:57.767Z,71.89
2018-03-24T09:20:57.746Z,71.98
2018-03-24T09:21:57.737Z,71.32
2018-03-24T09:22:57.715Z,70.75
2018-03-24T09:23:57.722Z,71.13
2018-03-24T09:24:57.692Z,71.03
2018-03-24T09:25:57.662Z,70.27
2018-03-24T09:26:57.649Z,70.56
2018-03-24T09:27:57.628Z,70.56
2018-03-24T09:28:57.611Z,70.75
2018-03-24T09:29:57.582Z,70.56
2018-03-24T09:30:57.573Z,70.18
2018-03-24T09:31:57.553Z,70.65
2018-03-24T09:32:57.531Z,70.47
2018-03-24T09:33:57.519Z,70.47
2018-03-24T09:34:57.510Z,70.47
2018-03-24T09:35:57.477Z,70.08
2018-03-24T09:36:57.456Z,70.18
2018-03-24T09:37:57.435Z,69.79
2018-03-24T09:38:57.422Z,69.89
2018-03-24T09:39:57.405Z,70.18
2018-03-24T09:40:57.479Z,69.99
2018-03-24T09:41:57.363Z,69.42
2018-03-24T09:42:57.363Z,69.13
2018-03-24T09:43:57.345Z,69.04
2018-03-24T09:44:57.311Z,68.37
2018-03-24T09:45:57.297Z,67.89
2018-03-24T09:46:57.288Z,67.83
2018-03-24T09:47:57.273Z,67.26
2018-03-24T09:48:57.238Z,67.55
2018-03-24T09:49:57.237Z,67.35
2018-03-24T09:50:57.217Z,67.55
2018-03-24T09:51:57.281Z,66.88
2018-03-24T09:52:57.184Z,66.59
2018-03-24T09:53:57.158Z,66.88
2018-03-24T09:54:57.165Z,66.97
2018-03-24T09:55:57.131Z,67.64
2018-03-24T09:56:57.122Z,67.45
2018-03-24T09:57:57.080Z,66.97
2018-03-24T09:58:57.073Z,66.31
2018-03-24T09:59:57.145Z,66.11
2018-03-24T10:00:57.056Z,66.59
2018-03-24T10:01:57.033Z,66.21
2018-03-24T10:02:56.992Z,64.87
2018-03-24T10:03:56.997Z,64.40
2018-03-24T10:04:56.988Z,64.12
2018-03-24T10:05:56.957Z,64.12
2018-03-24T10:06:56.976Z,64.02
2018-03-24T10:07:56.922Z,64.05
2018-03-24T10:08:56.895Z,64.05
2018-03-24T10:09:56.924Z,64.05
2018-03-24T10:10:56.880Z,64.43
2018-03-24T10:11:56.838Z,64.05
2018-03-24T10:12:56.824Z,62.91
2018-03-24T10:13:56.799Z,62.91
2018-03-24T10:14:56.811Z,62.91
2018-03-24T10:15:56.757Z,62.52
2018-03-24T10:16:56.750Z,62.81
2018-03-24T10:17:56.763Z,63.00
2018-03-24T10:18:56.720Z,63.67
2018-03-24T10:19:56.694Z,63.73
2018-03-24T10:20:56.674Z,63.45
2018-03-24T10:21:56.670Z,63.64
2018-03-24T10:22:56.666Z,63.73
2018-03-24T10:23:56.650Z,64.02
2018-03-24T10:24:56.636Z,63.83
2018-03-24T10:25:56.617Z,63.26
2018-03-24T10:26:56.570Z,63.48
2018-03-24T10:27:56.561Z,62.81
2018-03-24T10:28:56.535Z,62.91
2018-03-24T10:29:56.529Z,61.76
2018-03-24T10:30:56.523Z,62.24
2018-03-24T10:31:56.554Z,62.24
2018-03-24T10:32:56.493Z,61.67
2018-03-24T10:33:56.460Z,60.91
2018-03-24T10:34:56.433Z,61.19
2018-03-24T10:35:56.416Z,61.48
2018-03-24T10:36:56.437Z,61.86
2018-03-24T10:37:56.388Z,61.00
2018-03-24T10:38:56.388Z,59.67
2018-03-24T10:39:56.362Z,59.00
2018-03-24T10:40:56.349Z,59.28
2018-03-24T10:41:56.322Z,59.57
2018-03-24T10:42:56.307Z,60.14
2018-03-24T10:43:56.294Z,59.76
2018-03-24T10:44:56.259Z,59.51
2018-03-24T10:45:56.248Z,59.03
2018-03-24T10:46:56.237Z,59.12
2018-03-24T10:47:56.245Z,58.84
2018-03-24T10:48:56.242Z,58.46
2018-03-24T10:49:56.180Z,58.46
2018-03-24T10:50:56.163Z,58.36
2018-03-24T10:51:56.167Z,57.98
2018-03-24T10:52:56.166Z,57.70
2018-03-24T10:53:56.129Z,57.03
2018-03-24T10:54:56.105Z,57.22
2018-03-24T10:55:56.074Z,57.70
2018-03-24T10:56:56.071Z,57.50
2018-03-24T10:57:56.064Z,57.50
2018-03-24T10:58:56.050Z,58.55
2018-03-24T10:59:56.016Z,58.07
2018-03-24T11:00:55.980Z,58.46
2018-03-24T11:01:55.972Z,57.22
2018-03-24T11:02:56.001Z,56.74
2018-03-24T11:03:55.979Z,56.93
2018-03-24T11:04:55.916Z,56.65
2018-03-24T11:05:55.907Z,56.17
2018-03-24T11:06:55.877Z,55.60
2018-03-24T11:07:55.867Z,55.88
2018-03-24T11:08:55.873Z,55.88
2018-03-24T11:09:55.831Z,56.46
2018-03-24T11:10:55.935Z,56.55
2018-03-24T11:11:55.817Z,56.84
2018-03-24T11:12:55.817Z,56.46
2018-03-24T11:13:55.788Z,55.79
2018-03-24T11:14:55.875Z,56.17
2018-03-24T11:15:55.737Z,56.17
2018-03-24T11:16:55.725Z,56.26
2018-03-24T11:17:55.718Z,56.17
2018-03-24T11:18:55.677Z,56.65
2018-03-24T11:19:55.692Z,56.65
2018-03-24T11:20:55.697Z,55.91
2018-03-24T11:21:55.623Z,55.43
2018-03-24T11:22:56.574Z,54.48
2018-03-24T11:23:55.677Z,53.72
2018-03-24T11:24:55.748Z,53.43
2018-03-24T11:25:55.599Z,53.24
2018-03-24T11:26:55.548Z,53.72
2018-03-24T11:27:55.544Z,53.43
2018-03-24T11:28:55.529Z,52.86
2018-03-24T11:29:55.516Z,52.95
2018-03-24T11:30:55.495Z,53.14
2018-03-24T11:31:55.481Z,53.62
2018-03-24T11:32:55.466Z,53.05
2018-03-24T11:33:55.449Z,52.98
2018-03-24T11:34:55.444Z,53.08
2018-03-24T11:35:55.389Z,53.08
2018-03-24T11:36:55.378Z,52.79
2018-03-24T11:37:55.390Z,52.50
2018-03-24T11:38:55.408Z,52.12
2018-03-24T11:39:55.355Z,52.19
2018-03-24T11:40:55.453Z,52.95
2018-03-24T11:41:55.320Z,53.05
2018-03-24T11:42:55.339Z,53.14
2018-03-24T11:43:55.311Z,53.08
2018-03-24T11:44:55.286Z,52.95
2018-03-24T11:45:55.287Z,53.24
2018-03-24T11:46:55.298Z,53.53
2018-03-24T11:47:55.209Z,53.33
2018-03-24T11:48:55.249Z,53.17
2018-03-24T11:49:55.191Z,53.55
2018-03-24T11:50:55.170Z,53.05
2018-03-24T11:51:55.182Z,53.27
2018-03-24T11:52:55.171Z,52.98
2018-03-24T11:53:55.174Z,53.65
2018-03-24T11:54:55.135Z,52.88
2018-03-24T11:55:55.142Z,53.17
2018-03-24T11:56:55.070Z,53.65
2018-03-24T11:57:55.039Z,52.88
2018-03-24T11:58:55.048Z,52.59
2018-03-24T11:59:55.024Z,53.08
2018-03-24T12:00:54.992Z,52.40
2018-03-24T12:01:55.043Z,52.40
2018-03-24T12:02:54.969Z,52.88
2018-03-24T12:03:54.948Z,52.98
2018-03-24T12:04:55.066Z,52.98
2018-03-24T12:06:54.971Z,52.98
2018-03-24T12:07:54.894Z,52.34
2018-03-24T12:08:54.860Z,52.72
2018-03-24T12:09:54.854Z,53.10
2018-03-24T12:10:54.828Z,52.91
2018-03-24T12:11:55.571Z,53.27
2018-03-24T12:12:54.803Z,53.55
2018-03-24T12:13:54.803Z,53.65
2018-03-24T12:14:54.795Z,54.50
2018-03-24T12:15:54.771Z,54.60
2018-03-24T12:16:54.749Z,55.24
2018-03-24T12:17:54.747Z,55.46
2018-03-24T12:18:54.728Z,55.18
2018-03-24T12:19:54.728Z,55.18
2018-03-24T12:20:54.755Z,55.46
2018-03-24T12:21:54.676Z,55.27
2018-03-24T12:22:54.660Z,54.57
2018-03-24T12:23:54.636Z,54.96
2018-03-24T12:24:54.615Z,55.43
2018-03-24T12:25:54.590Z,55.72
2018-03-24T12:26:54.602Z,55.94
2018-03-24T12:27:54.586Z,56.23
2018-03-24T12:28:54.568Z,55.55
2018-03-24T12:29:54.596Z,56.04
2018-03-24T12:30:54.548Z,55.75
2018-03-24T12:31:54.526Z,55.18
2018-03-24T12:32:54.496Z,56.04
2018-03-24T12:33:54.457Z,56.04
2018-03-24T12:34:54.462Z,55.84
2018-03-24T12:35:54.542Z,55.75
2018-03-24T12:36:54.423Z,55.18
2018-03-24T12:37:54.410Z,55.40
2018-03-24T12:38:54.385Z,55.40
2018-03-24T12:39:54.422Z,55.30
2018-03-24T12:40:54.373Z,54.72
2018-03-24T12:41:54.375Z,54.13
2018-03-24T12:42:54.326Z,54.41
2018-03-24T12:43:54.310Z,53.84
2018-03-24T12:44:54.298Z,55.36
2018-03-24T12:45:54.289Z,55.18
2018-03-24T12:46:54.254Z,56.04
2018-03-24T12:47:54.239Z,55.94
2018-03-24T12:48:54.244Z,55.75
2018-03-24T12:49:54.321Z,55.36
2018-03-24T12:50:54.202Z,55.27
2018-03-24T12:51:54.189Z,55.36
2018-03-24T12:52:54.179Z,55.94
2018-03-24T12:53:54.157Z,55.75